createdAt,value
2022-07-27T00:01:08.194Z,87.70
2022-07-27T00:03:36.832Z,87.90
2022-07-27T00:06:04.963Z,87.80
2022-07-27T00:08:32.996Z,87.80
2022-07-27T00:11:01.423Z,87.30
2022-07-27T00:13:29.783Z,87.70
2022-07-27T00:15:57.865Z,87.90
2022-07-27T00:18:27.221Z,88.00
2022-07-27T00:20:55.175Z,88.20
2022-07-27T00:23:23.166Z,88.20
2022-07-27T00:25:51.217Z,88.70
2022-07-27T00:28:19.301Z,88.70
2022-07-27T00:30:47.248Z,88.80
2022-07-27T00:33:16.939Z,89.10
2022-07-27T00:35:46.961Z,88.90
2022-07-27T00:38:16.622Z,88.80
2022-07-27T00:40:45.219Z,89.20
2022-07-27T00:43:13.491Z,89.40
2022-07-27T00:45:41.722Z,89.30
2022-07-27T00:48:09.712Z,89.80
2022-07-27T00:50:38.655Z,89.80
2022-07-27T00:53:09.195Z,90.00
2022-07-27T00:55:37.705Z,90.10
2022-07-27T00:58:08.638Z,90.30
2022-07-27T01:00:37.481Z,90.30
2022-07-27T01:03:05.765Z,90.40
2022-07-27T01:05:43.335Z,90.60
2022-07-27T01:08:15.146Z,90.70
2022-07-27T01:10:44.580Z,90.60
2022-07-27T01:13:13.494Z,91.00
2022-07-27T01:15:43.063Z,91.00
2022-07-27T01:18:26.473Z,91.10
2022-07-27T01:20:54.520Z,91.10
2022-07-27T01:23:23.917Z,91.30
2022-07-27T01:25:51.872Z,91.50
2022-07-27T01:28:19.879Z,91.50
2022-07-27T01:30:48.318Z,91.70
2022-07-27T01:33:16.511Z,91.70
2022-07-27T01:35:44.459Z,91.70
2022-07-27T01:38:13.456Z,91.80
2022-07-27T01:40:42.777Z,91.90
2022-07-27T01:43:10.692Z,91.90
2022-07-27T01:45:40.239Z,92.30
2022-07-27T01:48:08.386Z,92.40
2022-07-27T01:50:36.365Z,92.30
2022-07-27T01:53:04.651Z,92.60
2022-07-27T01:55:39.158Z,92.10
2022-07-27T01:58:09.401Z,92.40
2022-07-27T02:00:39.062Z,92.40
2022-07-27T02:03:08.616Z,92.30
2022-07-27T02:05:37.987Z,92.30
2022-07-27T02:08:07.007Z,92.30
2022-07-27T02:10:35.697Z,92.50
2022-07-27T02:13:21.987Z,92.60
2022-07-27T02:15:54.586Z,92.50
2022-07-27T02:18:26.773Z,92.40
2022-07-27T02:21:01.926Z,92.70
2022-07-27T02:23:31.444Z,93.00
2022-07-27T02:25:59.499Z,93.20
2022-07-27T02:28:27.719Z,93.30
2022-07-27T02:30:57.091Z,93.50
2022-07-27T02:33:25.071Z,93.50
2022-07-27T02:35:53.068Z,93.50
2022-07-27T02:38:21.120Z,93.60
2022-07-27T02:40:49.064Z,93.80
2022-07-27T02:43:17.041Z,93.90
2022-07-27T02:45:46.463Z,94.00
2022-07-27T02:48:16.133Z,94.10
2022-07-27T02:50:44.270Z,94.20
2022-07-27T02:53:12.295Z,94.20
2022-07-27T02:55:40.250Z,94.20
2022-07-27T02:58:08.276Z,94.50
2022-07-27T03:00:36.332Z,94.80
2022-07-27T03:03:04.401Z,94.80
2022-07-27T03:05:33.740Z,94.40
2022-07-27T03:08:02.275Z,94.70
2022-07-27T03:10:30.189Z,94.30
2022-07-27T03:12:58.431Z,94.40
2022-07-27T03:15:26.606Z,94.50
2022-07-27T03:17:54.954Z,94.40
2022-07-27T03:20:22.914Z,94.50
2022-07-27T03:22:52.297Z,94.40
2022-07-27T03:25:20.198Z,94.60
2022-07-27T03:27:48.154Z,94.30
2022-07-27T03:30:16.399Z,94.50
2022-07-27T03:32:44.339Z,94.50
2022-07-27T03:35:12.994Z,94.60
2022-07-27T03:37:40.982Z,94.90
2022-07-27T03:40:11.411Z,95.00
2022-07-27T03:42:39.362Z,95.00
2022-07-27T03:45:08.809Z,95.20
2022-07-27T03:47:36.779Z,95.50
2022-07-27T03:50:05.275Z,95.70
2022-07-27T03:52:33.218Z,96.00
2022-07-27T03:55:01.199Z,96.00
2022-07-27T03:57:30.725Z,96.10
2022-07-27T03:59:58.728Z,96.00
2022-07-27T04:02:26.837Z,96.30
2022-07-27T04:04:54.866Z,96.30
2022-07-27T04:07:22.937Z,96.40
2022-07-27T04:09:50.862Z,96.40
2022-07-27T04:12:20.023Z,96.60
2022-07-27T04:14:49.912Z,96.80
2022-07-27T04:17:54.855Z,96.90
2022-07-27T04:20:07.190Z,96.90
2022-07-27T04:22:35.146Z,97.00
2022-07-27T04:25:03.107Z,96.90
2022-07-27T04:27:31.005Z,96.70
2022-07-27T04:30:00.264Z,96.60
2022-07-27T04:32:28.173Z,96.70
2022-07-27T04:34:56.137Z,96.80
2022-07-27T04:37:24.150Z,96.90
2022-07-27T04:39:52.147Z,96.80
2022-07-27T04:42:20.080Z,96.80
2022-07-27T04:44:48.015Z,96.90
2022-07-27T04:47:17.332Z,96.90
2022-07-27T04:49:45.359Z,96.80
2022-07-27T04:52:15.824Z,96.80
2022-07-27T04:54:44.329Z,96.90
2022-07-27T04:57:12.506Z,96.90
2022-07-27T04:59:40.419Z,97.00
2022-07-27T05:02:08.539Z,97.00
2022-07-27T05:04:37.964Z,96.80
2022-07-27T05:07:06.028Z,96.60
2022-07-27T05:09:34.325Z,96.90
2022-07-27T05:12:02.238Z,96.90
2022-07-27T05:14:30.216Z,96.60
2022-07-27T05:16:58.189Z,96.70
2022-07-27T05:19:40.274Z,96.60
2022-07-27T05:22:10.494Z,96.50
2022-07-27T05:24:38.412Z,96.50
2022-07-27T05:27:06.673Z,96.50
2022-07-27T05:29:34.633Z,96.40
2022-07-27T05:32:02.626Z,96.00
2022-07-27T05:34:30.570Z,96.20
2022-07-27T05:36:58.589Z,96.00
2022-07-27T05:39:27.988Z,95.90
2022-07-27T05:41:56.023Z,96.00
2022-07-27T05:44:24.097Z,95.90
2022-07-27T05:46:52.077Z,96.10
2022-07-27T05:49:20.090Z,96.60
2022-07-27T05:51:48.085Z,96.90
2022-07-27T05:54:16.006Z,96.50
2022-07-27T05:56:45.350Z,96.70
2022-07-27T05:59:13.745Z,96.20
2022-07-27T06:01:41.837Z,96.00
2022-07-27T06:04:09.761Z,96.20
2022-07-27T06:07:00.590Z,96.20
2022-07-27T06:09:28.587Z,96.20
2022-07-27T06:11:57.916Z,95.70
2022-07-27T06:14:25.857Z,95.70
2022-07-27T06:16:54.644Z,95.50
2022-07-27T06:19:22.612Z,95.30
2022-07-27T06:21:53.859Z,95.40
2022-07-27T06:24:22.491Z,95.00
2022-07-27T06:26:50.450Z,95.10
2022-07-27T06:29:19.753Z,95.00
2022-07-27T06:31:47.806Z,94.60
2022-07-27T06:34:15.930Z,94.60
2022-07-27T06:36:45.343Z,94.80
2022-07-27T06:39:14.020Z,94.40
2022-07-27T06:41:42.198Z,94.00
2022-07-27T06:44:10.128Z,93.80
2022-07-27T06:46:39.511Z,93.30
2022-07-27T06:49:07.634Z,93.20
2022-07-27T06:51:35.750Z,92.70
2022-07-27T06:54:05.366Z,92.30
2022-07-27T06:56:34.071Z,92.20
2022-07-27T06:59:02.163Z,92.00
2022-07-27T07:01:30.316Z,91.90
2022-07-27T07:04:00.234Z,91.80
2022-07-27T07:06:28.374Z,92.20
2022-07-27T07:08:56.459Z,91.80
2022-07-27T07:11:24.577Z,91.00
2022-07-27T07:13:52.600Z,91.20
2022-07-27T07:16:20.684Z,91.50
2022-07-27T07:18:52.293Z,92.20
2022-07-27T07:21:22.258Z,91.20
2022-07-27T07:23:50.354Z,91.10
2022-07-27T07:26:18.381Z,91.30
2022-07-27T07:28:46.376Z,91.00
2022-07-27T07:31:14.427Z,90.80
2022-07-27T07:33:42.489Z,90.50
2022-07-27T07:36:14.021Z,90.40
2022-07-27T07:38:44.820Z,90.50
2022-07-27T07:41:13.652Z,90.50
2022-07-27T07:43:42.331Z,90.90
2022-07-27T07:46:10.755Z,90.60
2022-07-27T07:48:39.910Z,90.70
2022-07-27T07:51:07.982Z,90.10
2022-07-27T07:53:41.105Z,90.50
2022-07-27T07:56:11.406Z,89.80
2022-07-27T07:58:39.607Z,89.60
2022-07-27T08:01:07.777Z,90.00
2022-07-27T08:03:35.950Z,89.50
2022-07-27T08:06:04.029Z,90.00
2022-07-27T08:08:32.091Z,90.20
2022-07-27T08:11:00.212Z,90.00
2022-07-27T08:13:29.668Z,90.10
2022-07-27T08:15:57.782Z,90.30
2022-07-27T08:18:25.887Z,89.10
2022-07-27T08:20:53.970Z,90.00
2022-07-27T08:23:22.037Z,88.80
2022-07-27T08:25:50.237Z,89.40
2022-07-27T08:28:18.255Z,87.00
2022-07-27T08:30:49.274Z,88.50
2022-07-27T08:33:18.245Z,89.20
2022-07-27T08:35:46.994Z,88.70
2022-07-27T08:38:15.368Z,88.10
2022-07-27T08:40:45.965Z,88.70
2022-07-27T08:43:23.667Z,89.70
2022-07-27T08:45:59.468Z,90.00
2022-07-27T08:48:28.514Z,89.20
2022-07-27T08:50:56.870Z,88.80
2022-07-27T08:53:25.373Z,88.00
2022-07-27T08:55:56.826Z,87.80
2022-07-27T08:58:24.936Z,88.60
2022-07-27T09:00:53.045Z,88.40
2022-07-27T09:03:24.154Z,88.90
2022-07-27T09:05:54.568Z,88.40
2022-07-27T09:08:24.542Z,88.80
2022-07-27T09:10:55.590Z,87.40
2022-07-27T09:13:26.213Z,85.00
2022-07-27T09:16:17.401Z,88.20
2022-07-27T09:18:46.197Z,88.70
2022-07-27T09:21:19.023Z,86.90
2022-07-27T09:23:49.545Z,87.60
2022-07-27T09:26:36.035Z,87.60
2022-07-27T09:29:07.533Z,88.50
2022-07-27T09:31:43.808Z,87.40
2022-07-27T09:34:13.986Z,87.20
2022-07-27T09:36:53.249Z,85.70
2022-07-27T09:39:22.645Z,87.60
2022-07-27T09:41:52.501Z,86.60
2022-07-27T09:44:34.945Z,86.70
2022-07-27T09:47:23.158Z,85.20
2022-07-27T09:49:54.566Z,85.10
2022-07-27T09:52:27.772Z,85.70
2022-07-27T09:55:02.843Z,84.20
2022-07-27T09:57:31.009Z,82.40
2022-07-27T10:00:11.422Z,84.30
2022-07-27T10:02:40.915Z,86.00
2022-07-27T10:05:11.560Z,86.10
2022-07-27T10:07:41.283Z,85.40
2022-07-27T10:10:10.635Z,84.30
2022-07-27T10:12:38.748Z,84.20
2022-07-27T10:15:08.082Z,83.80
2022-07-27T10:17:38.163Z,83.50
2022-07-27T10:20:12.295Z,83.20
2022-07-27T10:22:51.516Z,83.20
2022-07-27T10:25:19.966Z,82.90
2022-07-27T10:27:49.236Z,82.20
2022-07-27T10:30:24.260Z,81.20
2022-07-27T10:32:55.946Z,81.50
2022-07-27T10:35:36.355Z,79.10
2022-07-27T10:38:09.557Z,80.90
2022-07-27T10:40:38.987Z,83.00
2022-07-27T10:43:19.954Z,82.10
2022-07-27T10:45:50.422Z,82.50
2022-07-27T10:48:36.444Z,81.30
2022-07-27T10:51:07.097Z,80.60
2022-07-27T10:53:55.355Z,79.30
2022-07-27T10:56:46.839Z,78.20
2022-07-27T10:59:15.116Z,75.60
2022-07-27T11:01:58.345Z,77.70
2022-07-27T11:04:26.784Z,78.70
2022-07-27T11:10:09.214Z,78.00
2022-07-27T11:12:39.045Z,79.00
2022-07-27T11:15:08.565Z,79.10
2022-07-27T11:20:28.770Z,81.60
2022-07-27T11:23:48.626Z,79.40
2022-07-27T11:25:59.833Z,78.50
2022-07-27T11:28:31.066Z,76.70
2022-07-27T11:30:59.573Z,76.40
2022-07-27T11:33:28.261Z,76.80
2022-07-27T11:35:58.001Z,77.70
2022-07-27T11:38:27.740Z,75.90
2022-07-27T11:41:06.706Z,74.90
2022-07-27T11:43:45.510Z,76.10
2022-07-27T11:46:16.286Z,76.00
2022-07-27T11:49:05.943Z,75.80
2022-07-27T11:51:36.310Z,76.60
2022-07-27T11:54:07.424Z,76.90
2022-07-27T11:56:37.080Z,77.70
2022-07-27T11:59:08.709Z,77.90
2022-07-27T12:01:38.661Z,77.80
2022-07-27T12:04:09.278Z,78.30
2022-07-27T12:06:38.901Z,77.60
2022-07-27T12:09:11.110Z,78.40
2022-07-27T12:11:54.869Z,77.80
2022-07-27T12:14:33.347Z,77.70
2022-07-27T12:17:22.221Z,77.60
2022-07-27T12:19:55.695Z,77.20
2022-07-27T12:22:35.598Z,77.30
2022-07-27T12:25:12.662Z,75.80
2022-07-27T12:27:55.941Z,74.90
2022-07-27T12:30:31.287Z,75.00
2022-07-27T12:33:00.034Z,73.50
2022-07-27T12:35:35.920Z,74.80
2022-07-27T12:38:06.830Z,75.20
2022-07-27T12:40:44.371Z,74.90
2022-07-27T12:43:17.340Z,74.70
2022-07-27T12:45:45.913Z,74.00
2022-07-27T12:48:16.544Z,74.80
2022-07-27T12:50:46.675Z,74.90
2022-07-27T12:53:16.782Z,74.70
2022-07-27T12:55:46.446Z,74.10
2022-07-27T12:58:15.155Z,73.20
2022-07-27T13:00:44.115Z,71.90
2022-07-27T13:03:12.447Z,72.30
2022-07-27T13:05:40.794Z,72.10
2022-07-27T13:08:09.560Z,72.70
2022-07-27T13:10:38.303Z,71.30
2022-07-27T13:13:09.163Z,70.90
2022-07-27T13:15:37.858Z,71.40
2022-07-27T13:18:06.293Z,69.70
2022-07-27T13:20:36.979Z,70.50
2022-07-27T13:23:08.404Z,71.70
2022-07-27T13:25:42.788Z,69.90
2022-07-27T13:28:13.070Z,70.80
2022-07-27T13:30:41.130Z,70.10
2022-07-27T13:33:09.543Z,69.80
2022-07-27T13:35:37.639Z,70.60
2022-07-27T13:38:05.725Z,70.80
2022-07-27T13:40:33.954Z,71.20
2022-07-27T13:43:01.990Z,72.90
2022-07-27T13:45:42.288Z,72.10
2022-07-27T13:48:12.862Z,72.80
2022-07-27T13:50:44.767Z,70.20
2022-07-27T13:53:15.599Z,69.50
2022-07-27T13:55:44.356Z,72.10
2022-07-27T13:58:12.838Z,71.90
2022-07-27T14:00:42.368Z,71.30
2022-07-27T14:03:11.522Z,69.30
2022-07-27T14:05:41.913Z,69.60
2022-07-27T14:08:17.696Z,69.90
2022-07-27T14:10:46.029Z,68.50
2022-07-27T14:13:16.511Z,70.20
2022-07-27T14:15:50.645Z,69.50
2022-07-27T14:18:26.827Z,70.00
2022-07-27T14:20:55.557Z,69.60
2022-07-27T14:23:23.679Z,70.30
2022-07-27T14:25:52.036Z,70.90
2022-07-27T14:28:20.220Z,70.90
2022-07-27T14:30:50.512Z,71.30
2022-07-27T14:33:19.387Z,72.20
2022-07-27T14:35:48.193Z,70.00
2022-07-27T14:38:28.266Z,69.60
2022-07-27T14:41:00.847Z,71.20
2022-07-27T14:43:29.821Z,71.00
2022-07-27T14:45:59.510Z,69.00
2022-07-27T14:48:48.796Z,70.10
2022-07-27T14:51:16.124Z,70.80
2022-07-27T14:53:44.104Z,69.50
2022-07-27T14:56:12.115Z,68.60
2022-07-27T14:58:40.116Z,69.20
2022-07-27T15:01:09.770Z,70.30
2022-07-27T15:03:38.095Z,70.40
2022-07-27T15:06:06.541Z,70.00
2022-07-27T15:08:34.607Z,70.50
2022-07-27T15:11:02.851Z,70.40
2022-07-27T15:13:30.998Z,70.90
2022-07-27T15:15:59.099Z,70.30
2022-07-27T15:18:28.534Z,71.80
2022-07-27T15:20:56.681Z,71.10
2022-07-27T15:23:24.861Z,70.50
2022-07-27T15:25:53.792Z,70.40
2022-07-27T15:28:21.843Z,70.20
2022-07-27T15:30:49.942Z,69.90
2022-07-27T15:33:18.170Z,70.60
2022-07-27T15:35:47.622Z,70.40
2022-07-27T15:38:15.690Z,70.80
2022-07-27T15:40:43.778Z,70.30
2022-07-27T15:43:15.053Z,70.10
2022-07-27T15:45:45.691Z,70.00
2022-07-27T15:48:14.317Z,69.60
2022-07-27T15:50:44.489Z,70.00
2022-07-27T15:53:14.768Z,70.40
2022-07-27T15:55:44.462Z,70.00
2022-07-27T15:58:13.590Z,69.50
2022-07-27T16:00:41.883Z,70.50
2022-07-27T16:03:10.523Z,70.70
2022-07-27T16:05:38.672Z,70.40
2022-07-27T16:08:09.073Z,70.30
2022-07-27T16:10:39.463Z,70.30
2022-07-27T16:13:08.256Z,71.40
2022-07-27T16:15:54.710Z,71.50
2022-07-27T16:18:23.220Z,71.10
2022-07-27T16:20:51.661Z,71.40
2022-07-27T16:23:21.756Z,70.90
2022-07-27T16:26:04.041Z,71.30
2022-07-27T16:28:34.578Z,71.60
2022-07-27T16:31:03.043Z,71.70
2022-07-27T16:33:31.572Z,71.30
2022-07-27T16:35:59.698Z,71.60
2022-07-27T16:38:27.732Z,71.70
2022-07-27T16:40:57.132Z,71.70
2022-07-27T16:43:37.915Z,71.80
2022-07-27T16:46:08.453Z,71.90
2022-07-27T16:48:42.546Z,72.40
2022-07-27T16:51:12.444Z,71.40
2022-07-27T16:53:42.166Z,71.80
2022-07-27T16:56:12.149Z,71.00
2022-07-27T16:58:40.342Z,71.80
2022-07-27T17:01:09.333Z,71.70
2022-07-27T17:03:37.798Z,71.10
2022-07-27T17:06:07.244Z,71.70
2022-07-27T17:08:36.347Z,71.50
2022-07-27T17:11:06.192Z,71.80
2022-07-27T17:13:38.599Z,71.70
2022-07-27T17:16:14.552Z,71.60
2022-07-27T17:18:42.614Z,71.90
2022-07-27T17:21:12.922Z,72.80
2022-07-27T17:23:42.010Z,72.40
2022-07-27T17:26:10.837Z,73.00
2022-07-27T17:28:40.526Z,73.00
2022-07-27T17:31:10.196Z,72.70
2022-07-27T17:33:39.002Z,73.20
2022-07-27T17:36:14.111Z,73.50
2022-07-27T17:38:43.490Z,73.30
2022-07-27T17:41:11.541Z,73.50
2022-07-27T17:43:41.180Z,73.90
2022-07-27T17:46:10.608Z,73.80
2022-07-27T17:48:39.872Z,73.30
2022-07-27T17:51:10.572Z,74.20
2022-07-27T17:53:39.079Z,74.10
2022-07-27T17:56:08.543Z,74.10
2022-07-27T17:58:36.885Z,74.30
2022-07-27T18:01:07.163Z,74.20
2022-07-27T18:03:35.483Z,74.40
2022-07-27T18:06:03.826Z,74.80
2022-07-27T18:08:31.950Z,75.40
2022-07-27T18:11:00.097Z,74.90
2022-07-27T18:13:38.816Z,75.10
2022-07-27T18:16:11.547Z,74.90
2022-07-27T18:18:41.340Z,75.30
2022-07-27T18:21:10.789Z,75.40
2022-07-27T18:23:38.991Z,75.80
2022-07-27T18:26:07.021Z,75.60
2022-07-27T18:28:39.454Z,76.10
2022-07-27T18:31:12.434Z,76.40
2022-07-27T18:33:45.720Z,76.20
2022-07-27T18:36:14.225Z,76.40
2022-07-27T18:38:42.287Z,76.20
2022-07-27T18:41:10.374Z,76.60
2022-07-27T18:43:39.476Z,77.20
2022-07-27T18:46:11.200Z,77.90
2022-07-27T18:48:39.247Z,76.60
2022-07-27T18:51:07.318Z,77.70
2022-07-27T18:53:35.333Z,77.50
2022-07-27T18:56:03.265Z,77.20
2022-07-27T18:58:31.193Z,77.70
2022-07-27T19:00:59.624Z,78.10
2022-07-27T19:03:29.009Z,77.70
2022-07-27T19:05:57.249Z,78.00
2022-07-27T19:08:26.471Z,77.70
2022-07-27T19:10:54.765Z,77.80
2022-07-27T19:13:22.908Z,77.20
2022-07-27T19:15:51.001Z,77.40
2022-07-27T19:18:19.023Z,77.10
2022-07-27T19:20:48.522Z,77.50
2022-07-27T19:23:16.496Z,77.90
2022-07-27T19:25:45.395Z,78.20
2022-07-27T19:28:17.047Z,78.70
2022-07-27T19:30:45.171Z,77.90
2022-07-27T19:33:13.348Z,78.30
2022-07-27T19:35:41.358Z,78.00
2022-07-27T19:38:11.233Z,77.50
2022-07-27T19:40:44.644Z,78.00
2022-07-27T19:43:14.055Z,77.90
2022-07-27T19:45:42.799Z,78.10
2022-07-27T19:48:11.230Z,78.20
2022-07-27T19:50:40.055Z,78.00
2022-07-27T19:53:08.290Z,78.00
2022-07-27T19:55:37.659Z,78.70
2022-07-27T19:58:05.668Z,78.80
2022-07-27T20:00:34.042Z,78.70
2022-07-27T20:03:02.063Z,78.40
2022-07-27T20:05:30.181Z,78.50
2022-07-27T20:07:59.071Z,78.50
2022-07-27T20:10:27.071Z,78.30
2022-07-27T20:12:56.420Z,78.80
2022-07-27T20:15:24.483Z,78.70
2022-07-27T20:17:52.559Z,78.90
2022-07-27T20:20:20.614Z,80.10
2022-07-27T20:22:52.539Z,80.60
2022-07-27T20:25:20.620Z,80.20
2022-07-27T20:27:49.265Z,80.60
2022-07-27T20:30:20.269Z,81.00
2022-07-27T20:32:48.706Z,80.90
2022-07-27T20:35:17.335Z,81.10
2022-07-27T20:37:46.321Z,81.30
2022-07-27T20:40:14.586Z,81.00
2022-07-27T20:42:43.843Z,81.50
2022-07-27T20:45:14.612Z,81.90
2022-07-27T20:47:44.239Z,81.10
2022-07-27T20:50:14.227Z,82.00
2022-07-27T20:52:44.859Z,81.80
2022-07-27T20:55:14.068Z,82.80
2022-07-27T20:57:42.057Z,82.70
2022-07-27T21:00:11.476Z,82.60
2022-07-27T21:02:39.846Z,82.60
2022-07-27T21:05:10.518Z,83.00
2022-07-27T21:07:38.832Z,82.90
2022-07-27T21:10:08.050Z,82.10
2022-07-27T21:12:36.143Z,82.70
2022-07-27T21:15:05.730Z,82.00
2022-07-27T21:17:35.538Z,82.80
2022-07-27T21:20:03.741Z,82.40
2022-07-27T21:22:33.414Z,83.00
2022-07-27T21:25:01.413Z,83.20
2022-07-27T21:27:29.839Z,82.70
2022-07-27T21:29:59.162Z,83.00
2022-07-27T21:32:27.192Z,82.90
2022-07-27T21:34:55.198Z,82.40
2022-07-27T21:37:23.133Z,82.00
2022-07-27T21:39:52.487Z,82.00
2022-07-27T21:42:20.456Z,82.60
2022-07-27T21:44:48.406Z,82.60
2022-07-27T21:47:16.516Z,83.30
2022-07-27T21:49:44.491Z,83.30
2022-07-27T21:52:12.477Z,82.90
2022-07-27T21:54:40.857Z,83.60
2022-07-27T21:57:10.209Z,84.60
2022-07-27T21:59:38.223Z,84.80
2022-07-27T22:02:06.234Z,84.50
2022-07-27T22:04:35.452Z,85.10
2022-07-27T22:07:04.886Z,85.30
2022-07-27T22:09:32.881Z,84.90
2022-07-27T22:12:00.907Z,85.00
2022-07-27T22:14:30.483Z,85.90
2022-07-27T22:17:00.051Z,85.60
2022-07-27T22:19:28.262Z,86.00
2022-07-27T22:21:56.698Z,86.50
2022-07-27T22:24:24.727Z,86.10
2022-07-27T22:26:53.136Z,86.60
2022-07-27T22:29:21.165Z,85.70
2022-07-27T22:31:51.142Z,86.40
2022-07-27T22:34:19.183Z,86.70
2022-07-27T22:36:47.253Z,86.30
2022-07-27T22:39:15.252Z,87.00
2022-07-27T22:41:43.263Z,87.30
2022-07-27T22:44:11.904Z,87.40
2022-07-27T22:46:40.080Z,87.50
2022-07-27T22:49:10.123Z,87.70
2022-07-27T22:51:49.768Z,87.80
2022-07-27T22:54:21.090Z,87.60
2022-07-27T22:56:49.364Z,87.00
2022-07-27T22:59:17.374Z,88.20
2022-07-27T23:01:47.404Z,88.80
2022-07-27T23:04:18.291Z,88.50
2022-07-27T23:06:46.838Z,87.70
2022-07-27T23:09:14.906Z,87.60
2022-07-27T23:11:43.442Z,88.40
2022-07-27T23:14:12.058Z,87.50
2022-07-27T23:16:40.340Z,87.50
2022-07-27T23:19:08.781Z,87.90
2022-07-27T23:21:39.539Z,88.30
2022-07-27T23:24:10.226Z,87.80
2022-07-27T23:26:39.588Z,87.60
2022-07-27T23:29:07.692Z,87.50
2022-07-27T23:31:35.993Z,88.00
2022-07-27T23:34:04.141Z,86.30
2022-07-27T23:36:32.233Z,85.80
2022-07-27T23:39:01.619Z,86.10
2022-07-27T23:41:29.625Z,85.60
2022-07-27T23:43:57.616Z,86.70
2022-07-27T23:46:25.681Z,86.00
2022-07-27T23:48:53.753Z,86.00
2022-07-27T23:51:22.840Z,86.70
2022-07-27T23:53:50.824Z,86.60
2022-07-27T23:56:20.193Z,87.40
2022-07-27T23:58:48.209Z,88.00
